MSC Federica — HPQE — position and weather

sailwx.info

Track history (hours):
 
Tides and Currents Weather Stations Pressure Air Temp Water Temp Dewpoint Dewpoint Depression Visibility Wind Speed Wind Dir Waves Ship Positions

MSC Federica

Last reported at 2015-Sep-03 02:16 UTC. Time now 2015-Sep-03 06:50 UTC.
Position N 34°50' E 030°03'.

Length 294 m; draft 9.6 m.

Type: Cargo ship. MMSI: 357363000.

Date/timePositionNaut miles runAvg speedWind from/ knotsBaromVisibWave heightAir tempDewpointWater temp
2015-Sep-03 02:16N 34°50' E 030°03'3117.0
2015-Sep-03 00:28N 34°46' E 030°40'1617.3
2015-Sep-02 23:33N 34°44' E 030°59'1817.1
2015-Sep-02 22:29N 34°41' E 031°21'1616.8
2015-Sep-02 21:31N 34°39' E 031°41'1616.7
2015-Sep-02 20:33N 34°36' E 032°00'1716.9
2015-Sep-02 19:33N 34°34' E 032°20'1717.1
2015-Sep-02 18:33N 34°31' E 032°41'1716.5
2015-Sep-02 17:34N 34°29' E 033°01'10 9.8
2015-Sep-02 16:33N 34°39' E 033°02'0 0.5
2015-Sep-02 15:32N 34°39' E 033°01'0 0.0
2015-Sep-02 14:32N 34°39' E 033°01'0 0.0
2015-Sep-02 13:32N 34°39' E 033°01'0 0.0
2015-Sep-02 12:32N 34°39' E 033°01'0 0.0
2015-Sep-02 11:32N 34°39' E 033°01'0 0.0
2015-Sep-02 10:32N 34°39' E 033°01'0 0.0
2015-Sep-02 09:32N 34°39' E 033°01'0 0.0
2015-Sep-02 08:32N 34°39' E 033°01'0 0.0
2015-Sep-02 07:32N 34°39' E 033°01'0 0.0
2015-Sep-02 06:32N 34°39' E 033°01'0 0.0
2015-Sep-02 05:32N 34°39' E 033°01'0 0.0
2015-Sep-02 04:26N 34°39' E 033°01'0 0.0
2015-Sep-01 23:14N 34°39' E 033°01'0 0.0
2015-Sep-01 20:29N 34°39' E 033°01'0 0.0
2015-Sep-01 19:26N 34°39' E 033°01'0 0.0
2015-Sep-01 17:20N 34°39' E 033°01'0 0.0
2015-Sep-01 16:23N 34°39' E 033°01'0 0.0
2015-Sep-01 15:29N 34°39' E 033°01'0 0.0
2015-Sep-01 14:29N 34°39' E 033°01'0 0.0
2015-Sep-01 13:29N 34°39' E 033°01'0 0.0
2015-Sep-01 12:23N 34°39' E 033°01'0 0.0
2015-Sep-01 11:23N 34°39' E 033°01'0 0.0
2015-Sep-01 09:32N 34°39' E 033°01'0 0.0
2015-Sep-01 08:32N 34°39' E 033°01'0 0.0
2015-Sep-01 07:32N 34°39' E 033°01'0 0.0
2015-Sep-01 06:11N 34°39' E 033°01'0 0.0
2015-Sep-01 05:23N 34°39' E 033°01'0 0.0
2015-Sep-01 04:32N 34°39' E 033°01'0 0.0
2015-Sep-01 03:32N 34°39' E 033°01'0 0.0
2015-Sep-01 02:32N 34°39' E 033°01'0 0.0
2015-Sep-01 01:32N 34°39' E 033°01'0 0.0
2015-Sep-01 00:32N 34°39' E 033°01'0 0.0
2015-Aug-31 23:32N 34°39' E 033°01'0 0.0
2015-Aug-31 22:32N 34°39' E 033°01'0 0.0
2015-Aug-31 21:32N 34°39' E 033°01'0 0.0
2015-Aug-31 20:32N 34°39' E 033°01'0 0.0
2015-Aug-31 19:32N 34°39' E 033°01'0 0.0
2015-Aug-31 18:32N 34°39' E 033°01'0 0.0
2015-Aug-31 17:32N 34°39' E 033°01'0 0.0
2015-Aug-31 16:26N 34°39' E 033°01'0 0.0
2015-Aug-31 15:32N 34°39' E 033°01'0 0.0
2015-Aug-31 14:32N 34°39' E 033°01'0 0.0
2015-Aug-31 13:32N 34°39' E 033°01'0 0.0
2015-Aug-31 10:32N 34°39' E 033°01'0 0.0
2015-Aug-31 09:32N 34°39' E 033°01'0 0.0
2015-Aug-31 08:32N 34°39' E 033°01'0 0.0
2015-Aug-31 07:32N 34°39' E 033°01'0 0.0
2015-Aug-31 06:32N 34°39' E 033°01'0 0.0
2015-Aug-31 05:32N 34°39' E 033°01'1 1.4
2015-Aug-31 04:34N 34°39' E 033°03'2 2.2
2015-Aug-31 03:34N 34°39' E 033°05'1 0.5
2015-Aug-31 02:32N 34°39' E 033°05'0 0.0
2015-Aug-31 01:32N 34°39' E 033°05'0 0.0
2015-Aug-31 00:32N 34°40' E 033°05'0 0.0
2015-Aug-30 23:32N 34°39' E 033°05'0 0.0
2015-Aug-30 22:32N 34°40' E 033°05'0 0.0
2015-Aug-30 21:32N 34°39' E 033°05'0 0.0
2015-Aug-30 20:32N 34°39' E 033°05'0 0.1
2015-Aug-30 18:08N 34°40' E 033°05'3 5.9
2015-Aug-30 17:33N 34°38' E 033°08'10 9.9
2015-Aug-30 16:33N 34°31' E 033°17'0 0.1
2015-Aug-30 15:33N 34°31' E 033°17'1414.0
2015-Aug-30 14:33N 34°31' E 033°00'1716.8
2015-Aug-30 13:33N 34°35' E 032°40'18520.2
2015-Aug-30 04:24N 35°25' E 029°03'1720.0
2015-Aug-30 03:32N 35°30' E 028°42'1919.4
2015-Aug-30 02:33N 35°35' E 028°20'1919.2
2015-Aug-30 01:32N 35°41' E 027°57'4520.1
2015-Aug-29 23:19N 36°09' E 027°14'2520.2
2015-Aug-29 22:07N 36°26' E 026°52'1820.0
2015-Aug-29 21:12N 36°39' E 026°36'1320.5
2015-Aug-29 20:33N 36°48' E 026°24'2121.0
2015-Aug-29 19:33N 37°03' E 026°07'2120.8
2015-Aug-29 18:33N 37°22' E 025°55'2019.9
2015-Aug-29 17:33N 37°41' E 025°49'226 6.1
2015-Aug-28 04:33N 40°52' E 028°26'1515.4
2015-Aug-28 03:33N 40°54' E 028°46'9 8.2
2015-Aug-28 02:30N 40°58' E 028°56'0 0.1
2015-Aug-28 01:30N 40°58' E 028°56'0 0.0
2015-Aug-28 00:24N 40°58' E 028°56'2 1.1
2015-Aug-27 22:26N 40°56' E 028°57'10 9.1
2015-Aug-27 21:22N 40°48' E 029°04'6 7.6
2015-Aug-27 20:33N 40°51' E 029°12'  
Track history (hours):
 
Tides and Currents Weather Stations Pressure Air Temp Water Temp Dewpoint Dewpoint Depression Visibility Wind Speed Wind Dir Waves Ship Positions

MSC Federica

Last reported at 2015-Sep-03 02:16 UTC. Time now 2015-Sep-03 06:50 UTC.
Position N 34°50' E 030°03'.

Length 294 m; draft 9.6 m.

Type: Cargo ship. MMSI: 357363000.

Date/timePositionNaut miles runAvg speedWind from/ knotsBaromVisibWave heightAir tempDewpointWater temp
2015-Sep-03 02:16N 34°50' E 030°03'3117.0
2015-Sep-03 00:28N 34°46' E 030°40'1617.3
2015-Sep-02 23:33N 34°44' E 030°59'1817.1
2015-Sep-02 22:29N 34°41' E 031°21'1616.8
2015-Sep-02 21:31N 34°39' E 031°41'1616.7
2015-Sep-02 20:33N 34°36' E 032°00'1716.9
2015-Sep-02 19:33N 34°34' E 032°20'1717.1
2015-Sep-02 18:33N 34°31' E 032°41'1716.5
2015-Sep-02 17:34N 34°29' E 033°01'10 9.8
2015-Sep-02 16:33N 34°39' E 033°02'0 0.5
2015-Sep-02 15:32N 34°39' E 033°01'0 0.0
2015-Sep-02 14:32N 34°39' E 033°01'0 0.0
2015-Sep-02 13:32N 34°39' E 033°01'0 0.0
2015-Sep-02 12:32N 34°39' E 033°01'0 0.0
2015-Sep-02 11:32N 34°39' E 033°01'0 0.0
2015-Sep-02 10:32N 34°39' E 033°01'0 0.0
2015-Sep-02 09:32N 34°39' E 033°01'0 0.0
2015-Sep-02 08:32N 34°39' E 033°01'0 0.0
2015-Sep-02 07:32N 34°39' E 033°01'0 0.0
2015-Sep-02 06:32N 34°39' E 033°01'0 0.0
2015-Sep-02 05:32N 34°39' E 033°01'0 0.0
2015-Sep-02 04:26N 34°39' E 033°01'0 0.0
2015-Sep-01 23:14N 34°39' E 033°01'0 0.0
2015-Sep-01 20:29N 34°39' E 033°01'0 0.0
2015-Sep-01 19:26N 34°39' E 033°01'0 0.0
2015-Sep-01 17:20N 34°39' E 033°01'0 0.0
2015-Sep-01 16:23N 34°39' E 033°01'0 0.0
2015-Sep-01 15:29N 34°39' E 033°01'0 0.0
2015-Sep-01 14:29N 34°39' E 033°01'0 0.0
2015-Sep-01 13:29N 34°39' E 033°01'0 0.0
2015-Sep-01 12:23N 34°39' E 033°01'0 0.0
2015-Sep-01 11:23N 34°39' E 033°01'0 0.0
2015-Sep-01 09:32N 34°39' E 033°01'0 0.0
2015-Sep-01 08:32N 34°39' E 033°01'0 0.0
2015-Sep-01 07:32N 34°39' E 033°01'0 0.0
2015-Sep-01 06:11N 34°39' E 033°01'0 0.0
2015-Sep-01 05:23N 34°39' E 033°01'0 0.0
2015-Sep-01 04:32N 34°39' E 033°01'0 0.0
2015-Sep-01 03:32N 34°39' E 033°01'0 0.0
2015-Sep-01 02:32N 34°39' E 033°01'0 0.0
2015-Sep-01 01:32N 34°39' E 033°01'0 0.0
2015-Sep-01 00:32N 34°39' E 033°01'0 0.0
2015-Aug-31 23:32N 34°39' E 033°01'0 0.0
2015-Aug-31 22:32N 34°39' E 033°01'0 0.0
2015-Aug-31 21:32N 34°39' E 033°01'0 0.0
2015-Aug-31 20:32N 34°39' E 033°01'0 0.0
2015-Aug-31 19:32N 34°39' E 033°01'0 0.0
2015-Aug-31 18:32N 34°39' E 033°01'0 0.0
2015-Aug-31 17:32N 34°39' E 033°01'0 0.0
2015-Aug-31 16:26N 34°39' E 033°01'0 0.0
2015-Aug-31 15:32N 34°39' E 033°01'0 0.0
2015-Aug-31 14:32N 34°39' E 033°01'0 0.0
2015-Aug-31 13:32N 34°39' E 033°01'0 0.0
2015-Aug-31 10:32N 34°39' E 033°01'0 0.0
2015-Aug-31 09:32N 34°39' E 033°01'0 0.0
2015-Aug-31 08:32N 34°39' E 033°01'0 0.0
2015-Aug-31 07:32N 34°39' E 033°01'0 0.0
2015-Aug-31 06:32N 34°39' E 033°01'0 0.0
2015-Aug-31 05:32N 34°39' E 033°01'1 1.4
2015-Aug-31 04:34N 34°39' E 033°03'2 2.2
2015-Aug-31 03:34N 34°39' E 033°05'1 0.5
2015-Aug-31 02:32N 34°39' E 033°05'0 0.0
2015-Aug-31 01:32N 34°39' E 033°05'0 0.0
2015-Aug-31 00:32N 34°40' E 033°05'0 0.0
2015-Aug-30 23:32N 34°39' E 033°05'0 0.0
2015-Aug-30 22:32N 34°40' E 033°05'0 0.0
2015-Aug-30 21:32N 34°39' E 033°05'0 0.0
2015-Aug-30 20:32N 34°39' E 033°05'0 0.1
2015-Aug-30 18:08N 34°40' E 033°05'3 5.9
2015-Aug-30 17:33N 34°38' E 033°08'10 9.9
2015-Aug-30 16:33N 34°31' E 033°17'0 0.1
2015-Aug-30 15:33N 34°31' E 033°17'1414.0
2015-Aug-30 14:33N 34°31' E 033°00'1716.8
2015-Aug-30 13:33N 34°35' E 032°40'18520.2
2015-Aug-30 04:24N 35°25' E 029°03'1720.0
2015-Aug-30 03:32N 35°30' E 028°42'1919.4
2015-Aug-30 02:33N 35°35' E 028°20'1919.2
2015-Aug-30 01:32N 35°41' E 027°57'4520.1
2015-Aug-29 23:19N 36°09' E 027°14'2520.2
2015-Aug-29 22:07N 36°26' E 026°52'1820.0
2015-Aug-29 21:12N 36°39' E 026°36'1320.5
2015-Aug-29 20:33N 36°48' E 026°24'2121.0
2015-Aug-29 19:33N 37°03' E 026°07'2120.8
2015-Aug-29 18:33N 37°22' E 025°55'2019.9
2015-Aug-29 17:33N 37°41' E 025°49'226 6.1
2015-Aug-28 04:33N 40°52' E 028°26'1515.4
2015-Aug-28 03:33N 40°54' E 028°46'9 8.2
2015-Aug-28 02:30N 40°58' E 028°56'0 0.1
2015-Aug-28 01:30N 40°58' E 028°56'0 0.0
2015-Aug-28 00:24N 40°58' E 028°56'2 1.1
2015-Aug-27 22:26N 40°56' E 028°57'10 9.1
2015-Aug-27 21:22N 40°48' E 029°04'6 7.6
2015-Aug-27 20:33N 40°51' E 029°12'  

Dump ship's entire track history